Time;durP1;ratioP1;P1;durP2;ratioP2;P2;SDS_P1;SDS_P2;PMS_P1;PMS_P2;Temp;Humidity;BMP_temperature;BMP_pressure;BME280_temperature;BME280_humidity;BME280_pressure;Samples;Min_cycle;Max_cycle;Signal;HPM_P1;HPM_P2
2022/11/22 00:02:25;;;;;;;9.82;4.90;;;;;;;;;;5059499;28;20478;-73
2022/11/22 00:04:51;;;;;;;10.30;4.70;;;;;;;;;;5063579;28;20044;-73
2022/11/22 00:07:17;;;;;;;13.57;5.18;;;;;;;;;;5069425;28;20036;-73
2022/11/22 00:09:43;;;;;;;10.45;4.57;;;;;;;;;;5059688;28;20088;-73
2022/11/22 00:12:08;;;;;;;8.57;4.68;;;;;;;;;;5064811;28;20119;-73
2022/11/22 00:14:34;;;;;;;6.47;3.75;;;;;;;;;;5068422;28;20029;-73
2022/11/22 00:17:00;;;;;;;8.05;4.35;;;;;;;;;;5067273;28;20385;-73
2022/11/22 00:19:26;;;;;;;6.28;4.20;;;;;;;;;;5065653;28;20712;-73
2022/11/22 00:21:52;;;;;;;10.57;4.63;;;;;;;;;;5060310;28;20078;-73
2022/11/22 00:24:18;;;;;;;11.63;5.13;;;;;;;;;;5058997;28;20106;-73
2022/11/22 00:26:44;;;;;;;8.95;4.55;;;;;;;;;;5059808;28;20032;-74
2022/11/22 00:29:10;;;;;;;9.90;4.90;;;;;;;;;;5061091;28;20447;-73
2022/11/22 00:31:36;;;;;;;8.80;4.45;;;;;;;;;;5058280;28;20712;-75
2022/11/22 00:34:02;;;;;;;9.18;5.00;;;;;;;;;;5063225;28;20375;-74
2022/11/22 00:36:28;;;;;;;12.23;5.57;;;;;;;;;;5065945;28;20031;-75
2022/11/22 00:38:54;;;;;;;11.82;5.00;;;;;;;;;;5065651;28;20464;-72
2022/11/22 00:41:20;;;;;;;10.80;4.88;;;;;;;;;;5065886;28;20036;-72
2022/11/22 00:43:46;;;;;;;17.63;5.47;;;;;;;;;;5060606;28;20131;-72
2022/11/22 00:46:12;;;;;;;10.93;5.10;;;;;;;;;;5060394;28;20044;-72
2022/11/22 00:48:37;;;;;;;12.88;5.82;;;;;;;;;;5060559;28;20044;-72
2022/11/22 00:51:03;;;;;;;10.45;5.00;;;;;;;;;;5060065;28;20037;-74
2022/11/22 00:53:29;;;;;;;10.82;4.90;;;;;;;;;;5055374;28;20029;-74
2022/11/22 00:55:55;;;;;;;9.43;4.07;;;;;;;;;;5062764;28;20032;-74
2022/11/22 00:58:21;;;;;;;10.82;4.53;;;;;;;;;;5059982;28;20097;-74
2022/11/22 01:00:49;;;;;;;11.20;5.72;;;;;;;;;;5059133;28;20025;-74
2022/11/22 01:03:15;;;;;;;7.60;4.78;;;;;;;;;;5059062;28;20028;-74
2022/11/22 01:05:40;;;;;;;14.05;5.47;;;;;;;;;;5057290;28;20115;-74
2022/11/22 01:08:07;;;;;;;12.20;5.20;;;;;;;;;;5060973;28;20166;-75
2022/11/22 01:10:35;;;;;;;18.65;6.80;;;;;;;;;;5054219;28;20031;-74
2022/11/22 01:13:01;;;;;;;10.85;5.32;;;;;;;;;;5057801;28;20033;-74
2022/11/22 01:15:27;;;;;;;21.85;5.68;;;;;;;;;;5057540;28;20037;-74
2022/11/22 01:17:53;;;;;;;13.60;6.00;;;;;;;;;;5056276;28;20470;-74
2022/11/22 01:20:18;;;;;;;8.80;4.63;;;;;;;;;;5054917;28;20040;-75
2022/11/22 01:22:44;;;;;;;13.35;5.70;;;;;;;;;;5058293;28;20029;-74
2022/11/22 01:25:10;;;;;;;11.57;5.13;;;;;;;;;;5063417;28;20024;-75
2022/11/22 01:27:36;;;;;;;11.45;5.28;;;;;;;;;;5063804;28;20028;-74
2022/11/22 01:30:03;;;;;;;11.00;5.65;;;;;;;;;;5061375;28;20024;-74
2022/11/22 01:32:28;;;;;;;12.50;5.13;;;;;;;;;;5053642;28;20040;-74
2022/11/22 01:34:54;;;;;;;9.30;5.55;;;;;;;;;;5064566;28;20021;-74
2022/11/22 01:37:20;;;;;;;9.13;4.78;;;;;;;;;;5062449;28;20450;-74
2022/11/22 01:39:46;;;;;;;11.65;4.97;;;;;;;;;;5061175;28;20086;-74
2022/11/22 01:42:12;;;;;;;7.68;4.15;;;;;;;;;;5055702;28;20106;-74
2022/11/22 01:44:39;;;;;;;9.93;5.25;;;;;;;;;;5064411;28;20155;-74
2022/11/22 01:47:10;;;;;;;8.10;4.45;;;;;;;;;;5060385;28;20020;-74
2022/11/22 01:49:40;;;;;;;8.38;4.80;;;;;;;;;;5052303;28;20045;-75
2022/11/22 01:52:08;;;;;;;14.82;6.13;;;;;;;;;;5059972;28;20063;-75
2022/11/22 01:54:36;;;;;;;16.17;6.10;;;;;;;;;;5059178;28;20448;-74
2022/11/22 01:57:05;;;;;;;10.68;5.97;;;;;;;;;;5064474;28;20075;-75
2022/11/22 01:59:32;;;;;;;8.50;4.13;;;;;;;;;;5064098;28;20059;-75
2022/11/22 02:01:59;;;;;;;14.13;5.00;;;;;;;;;;5060845;28;20032;-74
2022/11/22 02:04:26;;;;;;;12.00;4.57;;;;;;;;;;5061528;28;20025;-74
2022/11/22 02:06:57;;;;;;;12.52;5.93;;;;;;;;;;5059255;28;20094;-73
2022/11/22 02:09:23;;;;;;;11.30;5.20;;;;;;;;;;5055590;28;20052;-74
2022/11/22 02:11:51;;;;;;;8.57;5.30;;;;;;;;;;5059540;28;20418;-73
2022/11/22 02:14:18;;;;;;;9.23;4.85;;;;;;;;;;5058181;28;20032;-73
2022/11/22 02:16:45;;;;;;;11.27;4.65;;;;;;;;;;5060774;28;20108;-74
2022/11/22 02:19:17;;;;;;;13.45;5.88;;;;;;;;;;5056206;28;20032;-74
2022/11/22 02:21:46;;;;;;;7.75;4.72;;;;;;;;;;5059636;28;20036;-74
2022/11/22 02:24:30;;;;;;;9.95;4.80;;;;;;;;;;5063841;28;20055;-74
2022/11/22 02:26:57;;;;;;;10.88;4.25;;;;;;;;;;5063168;28;20399;-73
2022/11/22 02:29:24;;;;;;;9.57;4.68;;;;;;;;;;5057572;28;20055;-74
2022/11/22 02:31:50;;;;;;;13.23;5.75;;;;;;;;;;5064345;28;20120;-73
2022/11/22 02:34:16;;;;;;;9.45;4.82;;;;;;;;;;5066163;28;20107;-73
2022/11/22 02:36:43;;;;;;;9.98;5.20;;;;;;;;;;5067629;28;20431;-73
2022/11/22 02:39:11;;;;;;;10.25;5.45;;;;;;;;;;5065910;28;20033;-73
2022/11/22 02:41:37;;;;;;;8.80;4.68;;;;;;;;;;5061886;28;20035;-73
2022/11/22 02:44:04;;;;;;;13.27;5.18;;;;;;;;;;5065382;28;20044;-74
2022/11/22 02:46:30;;;;;;;12.10;4.78;;;;;;;;;;5065719;28;20917;-74
2022/11/22 02:48:55;;;;;;;14.15;5.95;;;;;;;;;;5061609;28;20044;-74
2022/11/22 02:51:21;;;;;;;13.90;5.28;;;;;;;;;;5062598;28;20037;-74
2022/11/22 02:53:48;;;;;;;12.93;5.20;;;;;;;;;;5061941;28;20032;-74
2022/11/22 02:56:15;;;;;;;15.45;4.97;;;;;;;;;;5065111;28;20527;-74
2022/11/22 02:58:41;;;;;;;11.05;5.10;;;;;;;;;;5064329;28;20402;-74
2022/11/22 03:01:06;;;;;;;10.93;5.13;;;;;;;;;;5066419;28;20048;-74
2022/11/22 03:03:32;;;;;;;11.02;5.03;;;;;;;;;;5059823;28;20085;-74
2022/11/22 03:05:59;;;;;;;8.32;4.05;;;;;;;;;;5054484;28;20033;-72
2022/11/22 03:08:28;;;;;;;15.75;6.28;;;;;;;;;;5059721;28;20119;-72
2022/11/22 03:10:56;;;;;;;12.80;5.05;;;;;;;;;;5062346;28;20033;-72
2022/11/22 03:13:22;;;;;;;12.32;5.22;;;;;;;;;;5064527;28;20036;-72
2022/11/22 03:15:48;;;;;;;10.52;5.03;;;;;;;;;;5062857;28;20073;-72
2022/11/22 03:18:14;;;;;;;11.25;4.85;;;;;;;;;;5063410;28;20376;-72
2022/11/22 03:20:40;;;;;;;10.05;5.00;;;;;;;;;;5069149;28;20029;-72
2022/11/22 03:23:06;;;;;;;13.27;5.10;;;;;;;;;;5064056;28;20395;-71
2022/11/22 03:25:32;;;;;;;16.17;5.15;;;;;;;;;;5060103;28;20502;-72
2022/11/22 03:27:58;;;;;;;9.65;4.65;;;;;;;;;;5060071;28;20111;-71
2022/11/22 03:30:23;;;;;;;11.02;4.97;;;;;;;;;;5064126;28;20032;-72
2022/11/22 03:32:49;;;;;;;11.65;4.40;;;;;;;;;;5064135;28;20043;-72
2022/11/22 03:35:15;;;;;;;14.85;4.68;;;;;;;;;;5065879;28;20033;-72
2022/11/22 03:37:41;;;;;;;10.57;4.90;;;;;;;;;;5057971;28;20032;-73
2022/11/22 03:40:07;;;;;;;12.77;5.25;;;;;;;;;;5066253;28;20021;-72
2022/11/22 03:42:33;;;;;;;12.23;5.80;;;;;;;;;;5062176;28;20028;-72
2022/11/22 03:44:59;;;;;;;12.20;4.70;;;;;;;;;;5060873;28;20035;-72
2022/11/22 03:47:25;;;;;;;10.73;4.60;;;;;;;;;;5060592;28;20372;-72
2022/11/22 03:49:51;;;;;;;9.98;4.88;;;;;;;;;;5063542;28;20052;-72
2022/11/22 03:52:17;;;;;;;13.07;4.55;;;;;;;;;;5068773;28;20414;-72
2022/11/22 03:54:43;;;;;;;10.27;4.22;;;;;;;;;;5061038;28;20020;-73
2022/11/22 03:57:09;;;;;;;9.63;4.32;;;;;;;;;;5062525;28;20360;-72
2022/11/22 03:59:35;;;;;;;10.55;5.20;;;;;;;;;;5063843;28;20378;-72
2022/11/22 04:02:01;;;;;;;7.97;4.22;;;;;;;;;;5065375;28;20115;-72
2022/11/22 04:04:26;;;;;;;9.07;4.57;;;;;;;;;;5059082;28;20025;-72
2022/11/22 04:06:52;;;;;;;9.30;4.78;;;;;;;;;;5062008;28;20055;-71
2022/11/22 04:09:18;;;;;;;11.45;5.10;;;;;;;;;;5067313;28;20467;-73
2022/11/22 04:11:44;;;;;;;14.10;5.03;;;;;;;;;;5059052;28;20094;-72
2022/11/22 04:16:56;;;;;;;10.90;4.90;;;;;;;;;;5059698;28;20082;-72
2022/11/22 04:19:22;;;;;;;10.77;5.05;;;;;;;;;;5054320;28;20039;-73
2022/11/22 04:21:48;;;;;;;14.35;5.53;;;;;;;;;;5063650;28;20024;-73
2022/11/22 04:26:59;;;;;;;7.30;3.83;;;;;;;;;;5065574;28;20071;-73
2022/11/22 04:29:25;;;;;;;14.98;5.38;;;;;;;;;;5059396;28;20279;-73
2022/11/22 04:34:36;;;;;;;14.00;5.88;;;;;;;;;;5062457;28;20074;-73
2022/11/22 04:37:03;;;;;;;12.60;5.03;;;;;;;;;;5064397;28;20025;-73
2022/11/22 04:39:28;;;;;;;7.38;4.47;;;;;;;;;;5061461;28;20032;-73
2022/11/22 04:44:40;;;;;;;13.77;5.80;;;;;;;;;;5064862;28;20062;-73
2022/11/22 04:47:57;;;;;;;13.73;6.03;;;;;;;;;;5065088;28;20024;-73
2022/11/22 04:49:59;;;;;;;9.95;5.00;;;;;;;;;;5063245;28;20483;-73
2022/11/22 04:55:10;;;;;;;13.45;5.72;;;;;;;;;;5063613;28;20497;-73
2022/11/22 04:57:36;;;;;;;13.95;6.63;;;;;;;;;;5062908;28;20032;-73
2022/11/22 05:00:02;;;;;;;14.38;6.10;;;;;;;;;;5062150;28;20056;-73
2022/11/22 05:02:28;;;;;;;13.68;6.60;;;;;;;;;;5061238;28;20446;-73
2022/11/22 05:04:54;;;;;;;15.55;5.53;;;;;;;;;;5057298;28;20028;-73
2022/11/22 05:07:19;;;;;;;13.40;5.93;;;;;;;;;;5061933;28;20048;-73
2022/11/22 05:09:45;;;;;;;13.98;5.53;;;;;;;;;;5057996;28;20035;-73
2022/11/22 05:12:11;;;;;;;13.75;5.80;;;;;;;;;;5062967;28;20024;-73
2022/11/22 05:14:37;;;;;;;13.40;6.28;;;;;;;;;;5059713;28;21016;-77
2022/11/22 05:17:03;;;;;;;19.88;6.22;;;;;;;;;;5056242;28;20024;-73
2022/11/22 05:19:29;;;;;;;13.25;5.93;;;;;;;;;;5063427;28;20032;-72
2022/11/22 05:21:55;;;;;;;15.27;6.18;;;;;;;;;;5062574;28;20115;-73
2022/11/22 05:24:21;;;;;;;12.13;6.82;;;;;;;;;;5064806;28;20025;-72
2022/11/22 05:26:47;;;;;;;10.65;5.47;;;;;;;;;;5062639;28;20249;-73
2022/11/22 05:29:13;;;;;;;12.27;6.25;;;;;;;;;;5064350;28;20032;-74
2022/11/22 05:31:41;;;;;;;12.23;6.05;;;;;;;;;;5063293;28;20574;-74
2022/11/22 05:34:07;;;;;;;15.50;6.07;;;;;;;;;;5063286;28;20033;-71
2022/11/22 05:36:33;;;;;;;18.17;6.28;;;;;;;;;;5065187;28;20024;-80
2022/11/22 05:38:59;;;;;;;20.02;5.72;;;;;;;;;;5060233;28;20037;-74
2022/11/22 05:41:25;;;;;;;18.92;5.55;;;;;;;;;;5062094;28;20419;-73
2022/11/22 05:43:54;;;;;;;15.80;7.15;;;;;;;;;;5057473;28;20032;-74
2022/11/22 05:46:21;;;;;;;12.55;6.15;;;;;;;;;;5067200;28;20044;-73
2022/11/22 05:48:47;;;;;;;13.40;5.03;;;;;;;;;;5058249;28;20091;-73
2022/11/22 05:51:14;;;;;;;16.08;6.97;;;;;;;;;;5058751;28;20139;-74
2022/11/22 05:53:41;;;;;;;14.13;6.82;;;;;;;;;;5057344;28;20078;-73
2022/11/22 05:56:17;;;;;;;17.13;5.65;;;;;;;;;;5058675;28;20037;-76
2022/11/22 05:58:43;;;;;;;12.73;5.60;;;;;;;;;;5058850;28;20059;-77
2022/11/22 06:01:13;;;;;;;17.48;7.07;;;;;;;;;;5064027;28;20040;-76
2022/11/22 06:03:40;;;;;;;15.80;7.15;;;;;;;;;;5067664;28;20037;-77
2022/11/22 06:06:06;;;;;;;12.07;4.85;;;;;;;;;;5061469;28;20403;-77
2022/11/22 06:08:33;;;;;;;16.63;6.32;;;;;;;;;;5065304;28;20032;-78
2022/11/22 06:11:06;;;;;;;17.08;5.78;;;;;;;;;;5058783;28;20436;-78
2022/11/22 06:13:38;;;;;;;15.52;6.10;;;;;;;;;;5067849;28;20059;-79
2022/11/22 06:18:53;;;;;;;12.48;5.90;;;;;;;;;;5065905;28;20129;-77
2022/11/22 06:21:22;;;;;;;15.75;6.25;;;;;;;;;;5060765;28;20032;-77
2022/11/22 06:23:48;;;;;;;12.60;6.43;;;;;;;;;;5069818;28;20046;-77
2022/11/22 06:26:15;;;;;;;14.63;5.82;;;;;;;;;;5065900;28;20029;-77
2022/11/22 06:28:41;;;;;;;14.38;6.53;;;;;;;;;;5067416;28;20032;-77
2022/11/22 06:31:09;;;;;;;9.57;5.53;;;;;;;;;;5063973;28;20029;-76
2022/11/22 06:33:35;;;;;;;19.60;7.07;;;;;;;;;;5068911;28;20052;-77
2022/11/22 06:36:08;;;;;;;15.68;6.28;;;;;;;;;;5067225;28;20509;-77
2022/11/22 06:38:34;;;;;;;14.88;6.13;;;;;;;;;;5061459;28;20036;-77
2022/11/22 06:41:05;;;;;;;15.68;5.68;;;;;;;;;;5056668;28;20028;-77
2022/11/22 06:43:31;;;;;;;20.88;6.63;;;;;;;;;;5061167;28;20035;-77
2022/11/22 06:45:57;;;;;;;18.95;7.20;;;;;;;;;;5057412;28;20050;-76
2022/11/22 06:48:24;;;;;;;18.27;6.10;;;;;;;;;;5069720;28;20042;-77
2022/11/22 06:50:50;;;;;;;14.10;6.00;;;;;;;;;;5067617;28;20674;-77
2022/11/22 06:53:16;;;;;;;10.57;5.00;;;;;;;;;;5059368;28;20021;-77
2022/11/22 06:55:42;;;;;;;13.90;6.63;;;;;;;;;;5064322;28;20062;-77
2022/11/22 06:58:08;;;;;;;10.63;5.97;;;;;;;;;;5068285;28;20358;-77
2022/11/22 07:00:34;;;;;;;13.57;7.25;;;;;;;;;;5065775;28;20103;-77
2022/11/22 07:03:00;;;;;;;15.65;6.93;;;;;;;;;;5066224;28;20032;-77
2022/11/22 07:05:29;;;;;;;14.07;6.82;;;;;;;;;;5064001;28;20033;-76
2022/11/22 07:07:55;;;;;;;12.82;6.47;;;;;;;;;;5064491;28;20052;-76
2022/11/22 07:10:21;;;;;;;20.58;7.07;;;;;;;;;;5060296;28;20093;-77
2022/11/22 07:12:47;;;;;;;17.23;6.70;;;;;;;;;;5067405;28;20029;-77
2022/11/22 07:15:13;;;;;;;18.55;7.32;;;;;;;;;;5060456;28;20483;-76
2022/11/22 07:17:39;;;;;;;12.23;5.55;;;;;;;;;;5067493;28;20033;-76
2022/11/22 07:20:05;;;;;;;18.20;5.88;;;;;;;;;;5059039;28;20021;-77
2022/11/22 07:22:31;;;;;;;20.33;7.07;;;;;;;;;;5059347;28;20044;-77
2022/11/22 07:24:57;;;;;;;20.30;6.93;;;;;;;;;;5064481;28;20052;-77
2022/11/22 07:27:23;;;;;;;19.90;6.45;;;;;;;;;;5067042;28;20578;-77
2022/11/22 07:29:49;;;;;;;18.63;5.95;;;;;;;;;;5063584;28;20028;-77
2022/11/22 07:32:15;;;;;;;15.10;5.90;;;;;;;;;;5061694;28;20051;-77
2022/11/22 07:34:41;;;;;;;18.35;6.82;;;;;;;;;;5061799;28;20029;-77
2022/11/22 07:37:07;;;;;;;15.52;6.80;;;;;;;;;;5065378;28;20028;-77
2022/11/22 07:39:32;;;;;;;18.38;6.85;;;;;;;;;;5065013;28;20119;-77
2022/11/22 07:42:05;;;;;;;14.65;6.38;;;;;;;;;;5068870;28;20533;-77
2022/11/22 07:44:30;;;;;;;15.15;6.78;;;;;;;;;;5066696;28;20029;-77
2022/11/22 07:46:57;;;;;;;17.90;7.00;;;;;;;;;;5064979;28;20090;-76
2022/11/22 07:49:23;;;;;;;15.95;6.82;;;;;;;;;;5071048;28;20498;-77
2022/11/22 07:51:48;;;;;;;15.43;6.65;;;;;;;;;;5063620;28;20039;-77
2022/11/22 07:54:14;;;;;;;17.50;7.25;;;;;;;;;;5063714;28;20126;-77
2022/11/22 07:56:40;;;;;;;13.52;5.72;;;;;;;;;;5064129;28;20038;-76
2022/11/22 07:59:06;;;;;;;13.43;6.25;;;;;;;;;;5058476;28;20130;-77
2022/11/22 08:01:32;;;;;;;16.52;6.70;;;;;;;;;;5063423;28;20497;-77
2022/11/22 08:03:58;;;;;;;17.02;6.22;;;;;;;;;;5058485;28;20051;-77
2022/11/22 08:06:26;;;;;;;10.80;5.97;;;;;;;;;;5056194;28;20035;-77
2022/11/22 08:08:52;;;;;;;17.98;7.25;;;;;;;;;;5058798;28;20044;-77
2022/11/22 08:11:18;;;;;;;12.68;6.18;;;;;;;;;;5061102;28;20029;-77
2022/11/22 08:13:44;;;;;;;16.10;6.40;;;;;;;;;;5061814;28;20463;-77
2022/11/22 08:16:11;;;;;;;13.88;5.93;;;;;;;;;;5060550;28;20078;-77
2022/11/22 08:18:38;;;;;;;20.38;6.57;;;;;;;;;;5054492;28;20028;-77
2022/11/22 08:21:05;;;;;;;21.20;7.38;;;;;;;;;;5055757;28;20066;-76
2022/11/22 08:23:31;;;;;;;13.40;6.78;;;;;;;;;;5059146;28;20047;-77
2022/11/22 08:25:58;;;;;;;17.95;6.40;;;;;;;;;;5062001;28;20082;-77
2022/11/22 08:28:23;;;;;;;18.67;7.43;;;;;;;;;;5061360;28;20116;-81
2022/11/22 08:30:49;;;;;;;23.27;6.63;;;;;;;;;;5059594;28;20115;-77
2022/11/22 08:33:15;;;;;;;19.20;7.38;;;;;;;;;;5060081;28;20480;-78
2022/11/22 08:35:42;;;;;;;15.48;6.75;;;;;;;;;;5061166;28;20031;-78
2022/11/22 08:38:08;;;;;;;20.35;6.45;;;;;;;;;;5062047;28;20494;-79
2022/11/22 08:40:34;;;;;;;19.50;7.55;;;;;;;;;;5060377;28;20029;-78
2022/11/22 08:42:59;;;;;;;14.73;6.18;;;;;;;;;;5062693;28;20103;-79
2022/11/22 08:45:25;;;;;;;19.23;6.78;;;;;;;;;;5059844;28;20115;-78
2022/11/22 08:47:51;;;;;;;17.88;6.80;;;;;;;;;;5063558;28;20381;-79
2022/11/22 08:50:21;;;;;;;11.98;6.45;;;;;;;;;;5059919;28;20045;-78
2022/11/22 08:52:47;;;;;;;18.10;7.68;;;;;;;;;;5061490;28;20021;-79
2022/11/22 08:55:13;;;;;;;17.55;7.00;;;;;;;;;;5058926;28;20529;-79
2022/11/22 08:57:39;;;;;;;26.10;7.32;;;;;;;;;;5058022;28;20100;-81
2022/11/22 09:00:05;;;;;;;16.75;6.90;;;;;;;;;;5057254;28;20455;-78
2022/11/22 09:02:34;;;;;;;18.10;7.93;;;;;;;;;;5058054;28;20535;-79
2022/11/22 09:05:00;;;;;;;19.35;6.40;;;;;;;;;;5059177;28;20493;-78
2022/11/22 09:07:28;;;;;;;21.25;8.35;;;;;;;;;;5051775;28;20025;-78
2022/11/22 09:09:54;;;;;;;20.77;7.63;;;;;;;;;;5063890;28;20039;-82
2022/11/22 09:12:20;;;;;;;20.00;7.43;;;;;;;;;;5058015;28;20032;-78
2022/11/22 09:14:46;;;;;;;19.73;6.97;;;;;;;;;;5058156;28;20031;-78
2022/11/22 09:17:12;;;;;;;14.18;6.85;;;;;;;;;;5058279;28;20028;-78
2022/11/22 09:19:37;;;;;;;19.77;7.53;;;;;;;;;;5064660;28;20029;-76
2022/11/22 09:22:03;;;;;;;17.10;7.88;;;;;;;;;;5058538;28;20025;-75
2022/11/22 09:24:29;;;;;;;16.95;6.72;;;;;;;;;;5062843;28;20043;-76
2022/11/22 09:26:55;;;;;;;15.52;6.95;;;;;;;;;;5063769;28;20485;-76
2022/11/22 09:29:21;;;;;;;20.23;7.50;;;;;;;;;;5064711;28;20032;-80
2022/11/22 09:31:47;;;;;;;17.77;7.30;;;;;;;;;;5062558;28;20028;-78
2022/11/22 09:34:13;;;;;;;19.30;7.07;;;;;;;;;;5061286;28;20025;-84
2022/11/22 09:36:39;;;;;;;14.40;6.80;;;;;;;;;;5066351;28;20413;-78
2022/11/22 09:39:05;;;;;;;21.23;7.03;;;;;;;;;;5064829;28;20039;-78
2022/11/22 09:41:58;;;;;;;17.65;7.68;;;;;;;;;;5065277;28;20032;-80
2022/11/22 09:44:44;;;;;;;19.35;7.00;;;;;;;;;;5063911;28;20479;-79
2022/11/22 09:47:17;;;;;;;21.13;7.78;;;;;;;;;;5063925;28;20044;-78
2022/11/22 09:50:15;;;;;;;26.20;7.28;;;;;;;;;;5065301;28;20048;-78
2022/11/22 09:52:41;;;;;;;21.45;7.78;;;;;;;;;;5060583;28;20122;-78
2022/11/22 09:55:13;;;;;;;24.33;8.32;;;;;;;;;;5057772;28;20364;-78
2022/11/22 09:57:41;;;;;;;22.83;8.18;;;;;;;;;;5061520;28;20039;-78
2022/11/22 10:00:17;;;;;;;23.20;8.27;;;;;;;;;;5058132;28;20021;-78
2022/11/22 10:02:48;;;;;;;25.13;8.82;;;;;;;;;;5065527;28;20086;-78
2022/11/22 10:05:24;;;;;;;20.80;7.22;;;;;;;;;;5059880;28;20562;-78
2022/11/22 10:07:55;;;;;;;24.85;8.30;;;;;;;;;;5055016;28;20029;-78
2022/11/22 10:10:26;;;;;;;21.25;7.45;;;;;;;;;;5059680;28;20032;-78
2022/11/22 10:13:02;;;;;;;30.58;11.43;;;;;;;;;;5056962;28;20037;-78
2022/11/22 10:15:46;;;;;;;28.65;11.95;;;;;;;;;;5070329;28;20029;-78
2022/11/22 10:18:33;;;;;;;25.00;9.05;;;;;;;;;;5061821;28;20528;-78
2022/11/22 10:20:59;;;;;;;43.97;13.35;;;;;;;;;;5065591;28;20028;-78
2022/11/22 10:23:26;;;;;;;22.00;10.00;;;;;;;;;;5062601;28;20028;-78
2022/11/22 10:26:05;;;;;;;21.73;8.95;;;;;;;;;;5062083;28;20897;-78
2022/11/22 10:28:50;;;;;;;19.60;6.88;;;;;;;;;;5065012;28;20070;-78
2022/11/22 10:31:34;;;;;;;17.40;7.95;;;;;;;;;;5063885;28;20036;-78
2022/11/22 10:34:19;;;;;;;23.98;7.82;;;;;;;;;;5065008;28;20024;-78
2022/11/22 10:37:02;;;;;;;15.50;7.70;;;;;;;;;;5062938;28;20501;-78
2022/11/22 10:39:31;;;;;;;18.10;7.47;;;;;;;;;;5061595;28;20021;-79
2022/11/22 10:41:57;;;;;;;16.58;5.97;;;;;;;;;;5070141;28;20032;-78
2022/11/22 10:44:37;;;;;;;20.35;8.07;;;;;;;;;;5056850;28;20039;-78
2022/11/22 10:47:03;;;;;;;23.45;9.32;;;;;;;;;;5064870;28;20037;-78
2022/11/22 10:49:31;;;;;;;25.00;8.07;;;;;;;;;;5068105;28;20427;-78
2022/11/22 10:52:20;;;;;;;21.73;8.65;;;;;;;;;;5064969;28;20031;-78
2022/11/22 10:55:05;;;;;;;23.00;7.95;;;;;;;;;;5058013;28;20040;-77
2022/11/22 10:57:50;;;;;;;25.08;8.52;;;;;;;;;;5056126;28;20485;-78
2022/11/22 11:00:18;;;;;;;21.42;8.98;;;;;;;;;;5060274;28;20120;-78
2022/11/22 11:03:03;;;;;;;18.95;7.72;;;;;;;;;;5063803;28;20426;-78
2022/11/22 11:05:33;;;;;;;20.35;7.75;;;;;;;;;;5062314;28;20032;-78
2022/11/22 11:07:59;;;;;;;19.70;7.95;;;;;;;;;;5059070;28;20029;-79
2022/11/22 11:10:31;;;;;;;21.65;7.43;;;;;;;;;;5062347;28;20029;-79
2022/11/22 11:12:58;;;;;;;20.90;7.95;;;;;;;;;;5062492;28;20044;-79
2022/11/22 11:15:31;;;;;;;21.48;8.52;;;;;;;;;;5057006;28;20154;-79
2022/11/22 11:18:02;;;;;;;19.33;8.25;;;;;;;;;;5061588;28;20537;-79
2022/11/22 11:20:30;;;;;;;22.70;7.75;;;;;;;;;;5065952;28;20056;-79
2022/11/22 11:22:56;;;;;;;25.02;8.48;;;;;;;;;;5068828;28;20036;-79
2022/11/22 11:25:33;;;;;;;24.45;8.55;;;;;;;;;;5068092;28;20086;-79
2022/11/22 11:28:01;;;;;;;25.85;7.60;;;;;;;;;;5061433;28;20028;-79
2022/11/22 11:30:27;;;;;;;19.45;7.60;;;;;;;;;;5060690;28;20056;-79
2022/11/22 11:32:54;;;;;;;28.38;9.02;;;;;;;;;;5054255;28;20024;-80
2022/11/22 11:35:21;;;;;;;23.25;8.23;;;;;;;;;;5058773;28;20028;-78
2022/11/22 11:37:47;;;;;;;26.23;9.20;;;;;;;;;;5061635;28;20108;-78
2022/11/22 11:40:27;;;;;;;24.50;8.75;;;;;;;;;;5062287;28;20107;-79
2022/11/22 11:43:14;;;;;;;19.05;7.50;;;;;;;;;;5064347;28;20028;-79
2022/11/22 11:45:40;;;;;;;19.88;7.78;;;;;;;;;;5058929;28;20098;-79
2022/11/22 11:48:26;;;;;;;18.73;8.80;;;;;;;;;;5060518;28;20041;-79
2022/11/22 11:50:52;;;;;;;25.35;7.10;;;;;;;;;;5060146;28;20544;-78
2022/11/22 11:53:25;;;;;;;20.77;8.93;;;;;;;;;;5061806;28;20459;-79
2022/11/22 11:55:51;;;;;;;25.63;9.40;;;;;;;;;;5061487;28;20032;-77
2022/11/22 11:58:23;;;;;;;22.30;8.65;;;;;;;;;;5056539;28;20052;-82
2022/11/22 12:00:48;;;;;;;;;;;;;;;;;;5060588;28;20056;-78
2022/11/22 12:03:16;;;;;;;21.90;7.72;;;;;;;;;;5062646;28;19915;-76
2022/11/22 12:05:42;;;;;;;20.13;7.20;;;;;;;;;;5057400;28;20039;-76
2022/11/22 12:08:30;;;;;;;23.00;8.15;;;;;;;;;;5054184;28;20028;-76
2022/11/22 12:11:07;;;;;;;25.92;8.98;;;;;;;;;;5060768;28;20024;-76
2022/11/22 12:13:52;;;;;;;20.02;7.93;;;;;;;;;;5065100;28;20233;-76
2022/11/22 12:16:21;;;;;;;19.17;7.40;;;;;;;;;;5062892;28;20022;-76
2022/11/22 12:18:50;;;;;;;19.33;7.35;;;;;;;;;;5058301;28;20021;-76
2022/11/22 12:21:16;;;;;;;22.63;8.23;;;;;;;;;;5060030;28;20032;-76
2022/11/22 12:24:21;;;;;;;23.25;8.40;;;;;;;;;;5064344;28;20036;-76
2022/11/22 12:26:47;;;;;;;25.27;8.52;;;;;;;;;;5056256;28;20036;-75
2022/11/22 12:29:14;;;;;;;18.50;8.27;;;;;;;;;;5053680;28;20059;-77
2022/11/22 12:31:53;;;;;;;22.33;7.75;;;;;;;;;;5053586;28;20113;-76
2022/11/22 12:34:29;;;;;;;17.73;7.50;;;;;;;;;;5067964;28;20382;-77
2022/11/22 12:37:12;;;;;;;29.73;8.95;;;;;;;;;;5060366;28;20036;-76
2022/11/22 12:39:38;;;;;;;17.45;7.15;;;;;;;;;;5057958;28;20051;-76
2022/11/22 12:42:14;;;;;;;23.67;7.72;;;;;;;;;;5064190;28;20107;-77
2022/11/22 12:44:44;;;;;;;20.60;8.93;;;;;;;;;;5068045;28;20539;-76
2022/11/22 12:47:12;;;;;;;20.33;6.97;;;;;;;;;;5062381;28;20032;-76
2022/11/22 12:49:51;;;;;;;21.55;7.82;;;;;;;;;;5058895;28;20178;-77
2022/11/22 12:52:23;;;;;;;21.05;8.68;;;;;;;;;;5065996;28;20400;-78
2022/11/22 12:55:06;;;;;;;22.15;8.10;;;;;;;;;;5063779;28;20031;-78
2022/11/22 12:57:40;;;;;;;28.17;8.68;;;;;;;;;;5058403;28;20440;-81
2022/11/22 13:00:13;;;;;;;22.17;9.10;;;;;;;;;;5059806;28;20483;-79
2022/11/22 13:02:45;;;;;;;18.95;7.25;;;;;;;;;;5065203;28;20373;-82
2022/11/22 13:05:13;;;;;;;20.15;8.20;;;;;;;;;;5065421;28;20108;-80
2022/11/22 13:07:58;;;;;;;21.25;6.93;;;;;;;;;;5057670;28;20036;-78
2022/11/22 13:10:34;;;;;;;26.58;9.40;;;;;;;;;;5060352;28;20028;-83
2022/11/22 13:13:01;;;;;;;21.20;8.88;;;;;;;;;;5056544;28;20153;-86
2022/11/22 13:15:28;;;;;;;21.15;9.18;;;;;;;;;;5065090;28;20047;-85
2022/11/22 13:17:54;;;;;;;25.98;8.52;;;;;;;;;;5062562;28;20550;-80
2022/11/22 13:20:24;;;;;;;20.27;7.55;;;;;;;;;;5056717;28;20024;-87
2022/11/22 13:22:56;;;;;;;23.70;8.70;;;;;;;;;;5058978;28;20043;-83
2022/11/22 13:25:28;;;;;;;25.10;7.82;;;;;;;;;;5066835;28;20032;-80
2022/11/22 13:27:58;;;;;;;18.10;8.32;;;;;;;;;;5066583;28;20070;-81
2022/11/22 13:30:26;;;;;;;35.15;9.05;;;;;;;;;;5058290;28;20556;-80
2022/11/22 13:32:53;;;;;;;26.65;8.13;;;;;;;;;;5055835;28;20028;-77
2022/11/22 13:35:22;;;;;;;19.65;8.95;;;;;;;;;;5068130;28;20454;-83
2022/11/22 13:37:56;;;;;;;25.42;9.05;;;;;;;;;;5061616;28;20688;-81
2022/11/22 13:40:29;;;;;;;25.58;9.68;;;;;;;;;;5060351;28;20447;-85
2022/11/22 13:43:11;;;;;;;18.35;7.57;;;;;;;;;;5058435;28;20039;-81
2022/11/22 13:45:57;;;;;;;24.50;8.52;;;;;;;;;;5064487;28;20035;-82
2022/11/22 13:48:38;;;;;;;26.83;8.27;;;;;;;;;;5052376;28;20032;-84
2022/11/22 13:51:05;;;;;;;20.40;7.43;;;;;;;;;;5052432;28;20037;-81
2022/11/22 13:53:32;;;;;;;23.98;8.00;;;;;;;;;;5061071;28;20593;-79
2022/11/22 13:56:18;;;;;;;26.17;8.63;;;;;;;;;;5063911;28;20032;-79
2022/11/22 13:58:47;;;;;;;23.35;8.40;;;;;;;;;;5055127;28;20035;-81
2022/11/22 14:01:32;;;;;;;23.55;7.45;;;;;;;;;;5060160;28;20555;-81
2022/11/22 14:04:18;;;;;;;23.77;7.50;;;;;;;;;;5059330;28;20029;-79
2022/11/22 14:06:56;;;;;;;23.40;7.93;;;;;;;;;;5061643;28;20028;-79
2022/11/22 14:09:22;;;;;;;17.55;7.85;;;;;;;;;;5056619;28;20052;-80
2022/11/22 14:11:52;;;;;;;26.48;9.00;;;;;;;;;;5057688;28;20433;-80
2022/11/22 14:14:28;;;;;;;23.15;7.65;;;;;;;;;;5058225;28;20035;-80
2022/11/22 14:17:13;;;;;;;20.58;7.65;;;;;;;;;;5065930;28;20031;-80
2022/11/22 14:19:39;;;;;;;25.63;8.18;;;;;;;;;;5056971;28;20033;-80
2022/11/22 14:22:19;;;;;;;30.75;9.05;;;;;;;;;;5068185;28;20039;-80
2022/11/22 14:24:55;;;;;;;24.52;8.70;;;;;;;;;;5056863;28;20357;-79
2022/11/22 14:27:32;;;;;;;18.90;8.15;;;;;;;;;;5067557;28;20029;-80
2022/11/22 14:30:07;;;;;;;23.27;9.32;;;;;;;;;;5064479;28;20024;-80
2022/11/22 14:32:41;;;;;;;24.52;8.10;;;;;;;;;;5067832;28;20115;-79
2022/11/22 14:35:06;;;;;;;24.63;8.25;;;;;;;;;;5062100;28;20039;-78
2022/11/22 14:37:43;;;;;;;19.50;8.07;;;;;;;;;;5057236;28;20071;-77
2022/11/22 14:40:26;;;;;;;21.65;8.35;;;;;;;;;;5061051;28;20021;-79
2022/11/22 14:42:59;;;;;;;26.63;8.48;;;;;;;;;;5056652;28;20032;-79
2022/11/22 14:45:37;;;;;;;25.48;9.13;;;;;;;;;;5060145;28;20021;-80
2022/11/22 14:48:18;;;;;;;25.83;8.20;;;;;;;;;;5065205;28;20456;-79
2022/11/22 14:51:01;;;;;;;31.83;9.10;;;;;;;;;;5066578;28;20033;-79
2022/11/22 14:53:38;;;;;;;17.90;7.40;;;;;;;;;;5062000;28;20123;-80
2022/11/22 14:56:15;;;;;;;23.25;8.38;;;;;;;;;;5068291;28;20477;-80
2022/11/22 14:58:56;;;;;;;25.10;8.15;;;;;;;;;;5065811;28;20032;-80
2022/11/22 15:01:33;;;;;;;24.02;8.73;;;;;;;;;;5069860;28;20017;-80